sensor_id;sensor_type;location;lat;lon;timestamp;P1;durP1;ratioP1;P2;durP2;ratioP2
7881;SDS011;3986;41.884;23.466;2023-12-22T00:00:14;137.27;;;67.87;;
7881;SDS011;3986;41.884;23.466;2023-12-22T00:02:41;187.97;;;81.83;;
7881;SDS011;3986;41.884;23.466;2023-12-22T00:05:08;167.23;;;76.03;;
7881;SDS011;3986;41.884;23.466;2023-12-22T00:07:35;176.27;;;77.53;;
7881;SDS011;3986;41.884;23.466;2023-12-22T00:10:02;166.37;;;76.40;;
7881;SDS011;3986;41.884;23.466;2023-12-22T00:12:30;156.70;;;75.97;;
7881;SDS011;3986;41.884;23.466;2023-12-22T00:14:57;195.00;;;72.63;;
7881;SDS011;3986;41.884;23.466;2023-12-22T00:17:24;129.87;;;61.00;;
7881;SDS011;3986;41.884;23.466;2023-12-22T00:19:50;149.57;;;67.40;;
7881;SDS011;3986;41.884;23.466;2023-12-22T00:22:17;143.77;;;63.77;;
7881;SDS011;3986;41.884;23.466;2023-12-22T00:24:44;149.00;;;62.07;;
7881;SDS011;3986;41.884;23.466;2023-12-22T00:27:11;125.47;;;59.20;;
7881;SDS011;3986;41.884;23.466;2023-12-22T00:29:39;113.03;;;57.00;;
7881;SDS011;3986;41.884;23.466;2023-12-22T00:32:06;123.07;;;58.00;;
7881;SDS011;3986;41.884;23.466;2023-12-22T00:34:34;118.97;;;54.67;;
7881;SDS011;3986;41.884;23.466;2023-12-22T00:37:01;124.67;;;63.37;;
7881;SDS011;3986;41.884;23.466;2023-12-22T00:39:29;121.77;;;54.63;;
7881;SDS011;3986;41.884;23.466;2023-12-22T00:41:56;117.93;;;55.63;;
7881;SDS011;3986;41.884;23.466;2023-12-22T00:44:23;110.20;;;52.33;;
7881;SDS011;3986;41.884;23.466;2023-12-22T00:46:54;127.53;;;56.47;;
7881;SDS011;3986;41.884;23.466;2023-12-22T00:49:20;146.73;;;52.17;;
7881;SDS011;3986;41.884;23.466;2023-12-22T00:51:47;116.30;;;51.87;;
7881;SDS011;3986;41.884;23.466;2023-12-22T00:54:14;117.63;;;52.20;;
7881;SDS011;3986;41.884;23.466;2023-12-22T00:56:41;111.07;;;55.20;;
7881;SDS011;3986;41.884;23.466;2023-12-22T00:59:08;113.37;;;51.43;;
7881;SDS011;3986;41.884;23.466;2023-12-22T01:01:35;106.77;;;49.57;;
7881;SDS011;3986;41.884;23.466;2023-12-22T01:04:02;108.30;;;49.30;;
7881;SDS011;3986;41.884;23.466;2023-12-22T01:06:29;96.23;;;46.37;;
7881;SDS011;3986;41.884;23.466;2023-12-22T01:08:55;109.47;;;48.40;;
7881;SDS011;3986;41.884;23.466;2023-12-22T01:11:22;117.90;;;52.00;;
7881;SDS011;3986;41.884;23.466;2023-12-22T01:13:49;113.80;;;51.13;;
7881;SDS011;3986;41.884;23.466;2023-12-22T01:16:16;116.43;;;52.77;;
7881;SDS011;3986;41.884;23.466;2023-12-22T01:18:44;126.23;;;54.57;;
7881;SDS011;3986;41.884;23.466;2023-12-22T01:21:12;108.63;;;50.63;;
7881;SDS011;3986;41.884;23.466;2023-12-22T01:23:39;125.77;;;53.57;;
7881;SDS011;3986;41.884;23.466;2023-12-22T01:26:06;123.23;;;54.60;;
7881;SDS011;3986;41.884;23.466;2023-12-22T01:28:33;126.93;;;56.80;;
7881;SDS011;3986;41.884;23.466;2023-12-22T01:31:00;130.00;;;61.13;;
7881;SDS011;3986;41.884;23.466;2023-12-22T01:33:26;142.13;;;68.17;;
7881;SDS011;3986;41.884;23.466;2023-12-22T01:35:54;125.30;;;54.17;;
7881;SDS011;3986;41.884;23.466;2023-12-22T01:38:23;114.93;;;52.67;;
7881;SDS011;3986;41.884;23.466;2023-12-22T01:40:49;111.37;;;51.97;;
7881;SDS011;3986;41.884;23.466;2023-12-22T01:43:16;121.60;;;53.13;;
7881;SDS011;3986;41.884;23.466;2023-12-22T01:45:46;128.37;;;52.40;;
7881;SDS011;3986;41.884;23.466;2023-12-22T01:48:13;119.60;;;53.57;;
7881;SDS011;3986;41.884;23.466;2023-12-22T01:50:41;103.50;;;55.47;;
7881;SDS011;3986;41.884;23.466;2023-12-22T01:53:09;116.57;;;52.93;;
7881;SDS011;3986;41.884;23.466;2023-12-22T01:55:38;122.43;;;53.70;;
7881;SDS011;3986;41.884;23.466;2023-12-22T01:58:05;121.50;;;49.40;;
7881;SDS011;3986;41.884;23.466;2023-12-22T02:00:31;118.63;;;51.53;;
7881;SDS011;3986;41.884;23.466;2023-12-22T02:02:58;110.80;;;47.03;;
7881;SDS011;3986;41.884;23.466;2023-12-22T02:05:26;126.33;;;52.13;;
7881;SDS011;3986;41.884;23.466;2023-12-22T02:07:54;117.23;;;49.90;;
7881;SDS011;3986;41.884;23.466;2023-12-22T02:10:21;116.30;;;45.63;;
7881;SDS011;3986;41.884;23.466;2023-12-22T02:12:49;124.03;;;48.60;;
7881;SDS011;3986;41.884;23.466;2023-12-22T02:15:16;102.77;;;45.90;;
7881;SDS011;3986;41.884;23.466;2023-12-22T02:17:43;101.60;;;47.57;;
7881;SDS011;3986;41.884;23.466;2023-12-22T02:20:15;112.37;;;48.17;;
7881;SDS011;3986;41.884;23.466;2023-12-22T02:22:44;109.37;;;49.17;;
7881;SDS011;3986;41.884;23.466;2023-12-22T02:25:11;135.10;;;61.17;;
7881;SDS011;3986;41.884;23.466;2023-12-22T02:27:38;106.10;;;51.97;;
7881;SDS011;3986;41.884;23.466;2023-12-22T02:30:11;113.03;;;49.37;;
7881;SDS011;3986;41.884;23.466;2023-12-22T02:32:42;119.33;;;56.63;;
7881;SDS011;3986;41.884;23.466;2023-12-22T02:35:13;110.67;;;53.30;;
7881;SDS011;3986;41.884;23.466;2023-12-22T02:37:42;125.67;;;58.23;;
7881;SDS011;3986;41.884;23.466;2023-12-22T02:40:12;122.37;;;55.13;;
7881;SDS011;3986;41.884;23.466;2023-12-22T02:42:40;110.07;;;53.07;;
7881;SDS011;3986;41.884;23.466;2023-12-22T02:45:12;119.00;;;53.70;;
7881;SDS011;3986;41.884;23.466;2023-12-22T02:47:40;115.33;;;54.97;;
7881;SDS011;3986;41.884;23.466;2023-12-22T02:50:07;134.60;;;61.63;;
7881;SDS011;3986;41.884;23.466;2023-12-22T02:52:35;112.87;;;52.47;;
7881;SDS011;3986;41.884;23.466;2023-12-22T02:55:02;114.63;;;50.27;;
7881;SDS011;3986;41.884;23.466;2023-12-22T02:57:30;106.50;;;50.07;;
7881;SDS011;3986;41.884;23.466;2023-12-22T02:59:57;105.87;;;48.57;;
7881;SDS011;3986;41.884;23.466;2023-12-22T03:02:24;117.37;;;50.93;;
7881;SDS011;3986;41.884;23.466;2023-12-22T03:04:51;120.20;;;51.10;;
7881;SDS011;3986;41.884;23.466;2023-12-22T03:07:18;110.97;;;52.43;;
7881;SDS011;3986;41.884;23.466;2023-12-22T03:09:45;115.97;;;56.57;;
7881;SDS011;3986;41.884;23.466;2023-12-22T03:12:11;120.70;;;57.17;;
7881;SDS011;3986;41.884;23.466;2023-12-22T03:14:40;143.27;;;60.43;;
7881;SDS011;3986;41.884;23.466;2023-12-22T03:17:06;117.27;;;56.93;;
7881;SDS011;3986;41.884;23.466;2023-12-22T03:19:34;125.50;;;60.27;;
7881;SDS011;3986;41.884;23.466;2023-12-22T03:22:01;115.87;;;55.13;;
7881;SDS011;3986;41.884;23.466;2023-12-22T03:24:28;132.87;;;57.70;;
7881;SDS011;3986;41.884;23.466;2023-12-22T03:26:55;130.07;;;61.73;;
7881;SDS011;3986;41.884;23.466;2023-12-22T03:29:22;142.10;;;58.93;;
7881;SDS011;3986;41.884;23.466;2023-12-22T03:31:50;133.03;;;59.20;;
7881;SDS011;3986;41.884;23.466;2023-12-22T03:34:17;142.00;;;66.00;;
7881;SDS011;3986;41.884;23.466;2023-12-22T03:36:43;144.93;;;66.07;;
7881;SDS011;3986;41.884;23.466;2023-12-22T03:39:13;137.80;;;68.00;;
7881;SDS011;3986;41.884;23.466;2023-12-22T03:41:40;126.83;;;62.73;;
7881;SDS011;3986;41.884;23.466;2023-12-22T03:44:07;143.93;;;69.03;;
7881;SDS011;3986;41.884;23.466;2023-12-22T03:46:33;145.10;;;66.07;;
7881;SDS011;3986;41.884;23.466;2023-12-22T03:49:02;151.00;;;68.07;;
7881;SDS011;3986;41.884;23.466;2023-12-22T03:51:28;119.27;;;60.20;;
7881;SDS011;3986;41.884;23.466;2023-12-22T03:53:55;121.07;;;58.80;;
7881;SDS011;3986;41.884;23.466;2023-12-22T03:56:22;112.37;;;54.97;;
7881;SDS011;3986;41.884;23.466;2023-12-22T03:58:48;116.73;;;53.93;;
7881;SDS011;3986;41.884;23.466;2023-12-22T04:01:15;94.00;;;46.47;;
7881;SDS011;3986;41.884;23.466;2023-12-22T04:03:42;77.30;;;32.80;;
7881;SDS011;3986;41.884;23.466;2023-12-22T04:06:10;76.97;;;33.63;;
7881;SDS011;3986;41.884;23.466;2023-12-22T04:08:37;129.30;;;60.37;;
7881;SDS011;3986;41.884;23.466;2023-12-22T04:11:04;141.87;;;65.27;;
7881;SDS011;3986;41.884;23.466;2023-12-22T04:13:30;126.13;;;65.70;;
7881;SDS011;3986;41.884;23.466;2023-12-22T04:15:57;123.70;;;58.00;;
7881;SDS011;3986;41.884;23.466;2023-12-22T04:18:24;111.70;;;50.40;;
7881;SDS011;3986;41.884;23.466;2023-12-22T04:20:51;96.97;;;44.90;;
7881;SDS011;3986;41.884;23.466;2023-12-22T04:23:21;99.93;;;47.13;;
7881;SDS011;3986;41.884;23.466;2023-12-22T04:25:48;96.30;;;49.87;;
7881;SDS011;3986;41.884;23.466;2023-12-22T04:28:15;90.20;;;46.97;;
7881;SDS011;3986;41.884;23.466;2023-12-22T04:30:42;99.23;;;53.20;;
7881;SDS011;3986;41.884;23.466;2023-12-22T04:33:08;99.03;;;46.73;;
7881;SDS011;3986;41.884;23.466;2023-12-22T04:35:35;94.13;;;44.10;;
7881;SDS011;3986;41.884;23.466;2023-12-22T04:38:02;102.63;;;50.87;;
7881;SDS011;3986;41.884;23.466;2023-12-22T04:40:30;105.43;;;51.57;;
7881;SDS011;3986;41.884;23.466;2023-12-22T04:42:57;145.53;;;79.50;;
7881;SDS011;3986;41.884;23.466;2023-12-22T04:45:24;100.07;;;49.43;;
7881;SDS011;3986;41.884;23.466;2023-12-22T04:47:51;96.10;;;51.07;;
7881;SDS011;3986;41.884;23.466;2023-12-22T04:50:17;121.43;;;56.80;;
7881;SDS011;3986;41.884;23.466;2023-12-22T04:52:44;111.27;;;56.50;;
7881;SDS011;3986;41.884;23.466;2023-12-22T04:55:11;131.57;;;68.90;;
7881;SDS011;3986;41.884;23.466;2023-12-22T04:57:39;119.67;;;58.97;;
7881;SDS011;3986;41.884;23.466;2023-12-22T05:00:07;119.50;;;55.97;;
7881;SDS011;3986;41.884;23.466;2023-12-22T05:02:34;96.13;;;48.17;;
7881;SDS011;3986;41.884;23.466;2023-12-22T05:05:01;111.43;;;46.53;;
7881;SDS011;3986;41.884;23.466;2023-12-22T05:07:28;103.10;;;42.63;;
7881;SDS011;3986;41.884;23.466;2023-12-22T05:09:55;96.50;;;42.53;;
7881;SDS011;3986;41.884;23.466;2023-12-22T05:12:22;80.73;;;37.37;;
7881;SDS011;3986;41.884;23.466;2023-12-22T05:14:50;107.70;;;42.23;;
7881;SDS011;3986;41.884;23.466;2023-12-22T05:17:17;89.30;;;39.87;;
7881;SDS011;3986;41.884;23.466;2023-12-22T05:19:43;121.07;;;42.10;;
7881;SDS011;3986;41.884;23.466;2023-12-22T05:22:10;102.97;;;44.70;;
7881;SDS011;3986;41.884;23.466;2023-12-22T05:24:37;118.83;;;47.50;;
7881;SDS011;3986;41.884;23.466;2023-12-22T05:27:04;112.63;;;46.80;;
7881;SDS011;3986;41.884;23.466;2023-12-22T05:29:31;108.63;;;49.03;;
7881;SDS011;3986;41.884;23.466;2023-12-22T05:31:59;111.30;;;51.57;;
7881;SDS011;3986;41.884;23.466;2023-12-22T05:34:26;101.07;;;48.90;;
7881;SDS011;3986;41.884;23.466;2023-12-22T05:36:53;107.70;;;53.10;;
7881;SDS011;3986;41.884;23.466;2023-12-22T05:39:20;124.53;;;60.17;;
7881;SDS011;3986;41.884;23.466;2023-12-22T05:41:46;170.23;;;72.83;;
7881;SDS011;3986;41.884;23.466;2023-12-22T05:44:13;176.30;;;81.60;;
7881;SDS011;3986;41.884;23.466;2023-12-22T05:46:40;176.57;;;84.57;;
7881;SDS011;3986;41.884;23.466;2023-12-22T05:49:08;131.43;;;64.50;;
7881;SDS011;3986;41.884;23.466;2023-12-22T05:51:38;143.47;;;69.93;;
7881;SDS011;3986;41.884;23.466;2023-12-22T05:54:06;148.00;;;71.13;;
7881;SDS011;3986;41.884;23.466;2023-12-22T05:56:34;137.30;;;64.63;;
7881;SDS011;3986;41.884;23.466;2023-12-22T05:59:00;117.30;;;56.67;;
7881;SDS011;3986;41.884;23.466;2023-12-22T06:01:28;108.17;;;53.43;;
7881;SDS011;3986;41.884;23.466;2023-12-22T06:03:55;105.97;;;53.27;;
7881;SDS011;3986;41.884;23.466;2023-12-22T06:06:23;112.30;;;58.43;;
7881;SDS011;3986;41.884;23.466;2023-12-22T06:08:50;101.13;;;59.23;;
7881;SDS011;3986;41.884;23.466;2023-12-22T06:11:17;128.20;;;69.27;;
7881;SDS011;3986;41.884;23.466;2023-12-22T06:13:44;130.80;;;74.37;;
7881;SDS011;3986;41.884;23.466;2023-12-22T06:16:11;132.93;;;68.83;;
7881;SDS011;3986;41.884;23.466;2023-12-22T06:18:39;152.80;;;82.40;;
7881;SDS011;3986;41.884;23.466;2023-12-22T06:21:06;260.20;;;147.63;;
7881;SDS011;3986;41.884;23.466;2023-12-22T06:23:34;259.37;;;148.33;;
7881;SDS011;3986;41.884;23.466;2023-12-22T06:26:01;194.53;;;119.93;;
7881;SDS011;3986;41.884;23.466;2023-12-22T06:28:28;194.80;;;106.33;;
7881;SDS011;3986;41.884;23.466;2023-12-22T06:30:55;173.57;;;91.63;;
7881;SDS011;3986;41.884;23.466;2023-12-22T06:33:21;142.67;;;79.80;;
7881;SDS011;3986;41.884;23.466;2023-12-22T06:35:48;161.23;;;78.83;;
7881;SDS011;3986;41.884;23.466;2023-12-22T06:38:18;162.70;;;82.33;;
7881;SDS011;3986;41.884;23.466;2023-12-22T06:40:46;166.13;;;81.13;;
7881;SDS011;3986;41.884;23.466;2023-12-22T06:43:13;140.43;;;68.67;;
7881;SDS011;3986;41.884;23.466;2023-12-22T06:45:40;149.37;;;76.60;;
7881;SDS011;3986;41.884;23.466;2023-12-22T06:48:07;141.97;;;73.57;;
7881;SDS011;3986;41.884;23.466;2023-12-22T06:50:35;149.93;;;73.50;;
7881;SDS011;3986;41.884;23.466;2023-12-22T06:53:03;136.23;;;72.23;;
7881;SDS011;3986;41.884;23.466;2023-12-22T06:55:29;131.50;;;68.90;;
7881;SDS011;3986;41.884;23.466;2023-12-22T06:57:58;162.23;;;81.47;;
7881;SDS011;3986;41.884;23.466;2023-12-22T07:00:24;185.50;;;90.30;;
7881;SDS011;3986;41.884;23.466;2023-12-22T07:02:51;167.30;;;86.17;;
7881;SDS011;3986;41.884;23.466;2023-12-22T07:05:31;216.90;;;124.27;;
7881;SDS011;3986;41.884;23.466;2023-12-22T07:08:01;183.70;;;103.13;;
7881;SDS011;3986;41.884;23.466;2023-12-22T07:10:30;190.20;;;99.57;;
7881;SDS011;3986;41.884;23.466;2023-12-22T07:13:02;151.33;;;81.43;;
7881;SDS011;3986;41.884;23.466;2023-12-22T07:15:32;143.37;;;73.07;;
7881;SDS011;3986;41.884;23.466;2023-12-22T07:17:59;145.10;;;70.03;;
7881;SDS011;3986;41.884;23.466;2023-12-22T07:20:27;101.90;;;48.23;;
7881;SDS011;3986;41.884;23.466;2023-12-22T07:22:55;121.67;;;50.77;;
7881;SDS011;3986;41.884;23.466;2023-12-22T07:25:21;102.47;;;42.50;;
7881;SDS011;3986;41.884;23.466;2023-12-22T07:27:48;154.87;;;85.47;;
7881;SDS011;3986;41.884;23.466;2023-12-22T07:30:16;151.03;;;81.10;;
7881;SDS011;3986;41.884;23.466;2023-12-22T07:32:43;184.97;;;118.87;;
7881;SDS011;3986;41.884;23.466;2023-12-22T07:35:12;212.03;;;137.80;;
7881;SDS011;3986;41.884;23.466;2023-12-22T07:37:39;226.17;;;128.77;;
7881;SDS011;3986;41.884;23.466;2023-12-22T07:40:07;175.33;;;101.93;;
7881;SDS011;3986;41.884;23.466;2023-12-22T07:42:34;177.93;;;109.67;;
7881;SDS011;3986;41.884;23.466;2023-12-22T07:45:02;179.40;;;103.67;;
7881;SDS011;3986;41.884;23.466;2023-12-22T07:47:31;173.00;;;104.23;;
7881;SDS011;3986;41.884;23.466;2023-12-22T07:49:57;174.43;;;113.30;;
7881;SDS011;3986;41.884;23.466;2023-12-22T07:52:24;214.57;;;130.73;;
7881;SDS011;3986;41.884;23.466;2023-12-22T07:54:51;211.80;;;128.30;;
7881;SDS011;3986;41.884;23.466;2023-12-22T07:57:18;186.73;;;103.67;;
7881;SDS011;3986;41.884;23.466;2023-12-22T07:59:44;151.80;;;74.57;;
7881;SDS011;3986;41.884;23.466;2023-12-22T08:02:11;167.47;;;91.37;;
7881;SDS011;3986;41.884;23.466;2023-12-22T08:04:39;149.63;;;78.57;;
7881;SDS011;3986;41.884;23.466;2023-12-22T08:07:06;122.23;;;71.70;;
7881;SDS011;3986;41.884;23.466;2023-12-22T08:09:33;117.27;;;71.40;;
7881;SDS011;3986;41.884;23.466;2023-12-22T08:12:00;112.90;;;65.23;;
7881;SDS011;3986;41.884;23.466;2023-12-22T08:14:26;177.67;;;72.50;;
7881;SDS011;3986;41.884;23.466;2023-12-22T08:16:53;125.17;;;70.03;;
7881;SDS011;3986;41.884;23.466;2023-12-22T08:19:20;186.27;;;92.93;;
7881;SDS011;3986;41.884;23.466;2023-12-22T08:21:48;142.90;;;82.10;;
7881;SDS011;3986;41.884;23.466;2023-12-22T08:24:15;133.10;;;75.87;;
7881;SDS011;3986;41.884;23.466;2023-12-22T08:26:42;139.63;;;77.77;;
7881;SDS011;3986;41.884;23.466;2023-12-22T08:29:09;151.83;;;84.20;;
7881;SDS011;3986;41.884;23.466;2023-12-22T08:31:36;174.97;;;93.70;;
7881;SDS011;3986;41.884;23.466;2023-12-22T08:34:03;181.23;;;106.00;;
7881;SDS011;3986;41.884;23.466;2023-12-22T08:36:30;181.97;;;111.20;;
7881;SDS011;3986;41.884;23.466;2023-12-22T08:38:58;217.97;;;135.93;;
7881;SDS011;3986;41.884;23.466;2023-12-22T08:41:25;202.67;;;131.13;;
7881;SDS011;3986;41.884;23.466;2023-12-22T08:43:52;235.07;;;147.80;;
7881;SDS011;3986;41.884;23.466;2023-12-22T08:46:19;182.47;;;89.27;;
7881;SDS011;3986;41.884;23.466;2023-12-22T08:48:46;174.73;;;76.67;;
7881;SDS011;3986;41.884;23.466;2023-12-22T08:51:13;141.03;;;78.73;;
7881;SDS011;3986;41.884;23.466;2023-12-22T08:53:49;183.57;;;80.63;;
7881;SDS011;3986;41.884;23.466;2023-12-22T08:56:19;165.63;;;93.63;;
7881;SDS011;3986;41.884;23.466;2023-12-22T08:58:46;177.83;;;90.30;;
7881;SDS011;3986;41.884;23.466;2023-12-22T09:01:15;185.10;;;102.90;;
7881;SDS011;3986;41.884;23.466;2023-12-22T09:03:42;163.83;;;98.47;;
7881;SDS011;3986;41.884;23.466;2023-12-22T09:06:14;219.13;;;133.80;;
7881;SDS011;3986;41.884;23.466;2023-12-22T09:08:59;201.77;;;125.13;;
7881;SDS011;3986;41.884;23.466;2023-12-22T09:11:28;268.23;;;126.23;;
7881;SDS011;3986;41.884;23.466;2023-12-22T09:13:56;221.93;;;140.57;;
7881;SDS011;3986;41.884;23.466;2023-12-22T09:16:28;246.93;;;156.93;;
7881;SDS011;3986;41.884;23.466;2023-12-22T09:18:55;252.13;;;173.87;;
7881;SDS011;3986;41.884;23.466;2023-12-22T09:21:24;229.03;;;154.03;;
7881;SDS011;3986;41.884;23.466;2023-12-22T09:23:51;276.13;;;151.63;;
7881;SDS011;3986;41.884;23.466;2023-12-22T09:26:22;236.50;;;141.93;;
7881;SDS011;3986;41.884;23.466;2023-12-22T09:28:52;137.80;;;65.60;;
7881;SDS011;3986;41.884;23.466;2023-12-22T09:31:20;70.13;;;25.20;;
7881;SDS011;3986;41.884;23.466;2023-12-22T09:33:47;70.53;;;21.03;;
7881;SDS011;3986;41.884;23.466;2023-12-22T09:36:16;40.20;;;13.73;;
7881;SDS011;3986;41.884;23.466;2023-12-22T09:38:43;63.20;;;14.57;;
7881;SDS011;3986;41.884;23.466;2023-12-22T09:41:12;51.33;;;12.00;;
7881;SDS011;3986;41.884;23.466;2023-12-22T09:43:41;57.23;;;14.37;;
7881;SDS011;3986;41.884;23.466;2023-12-22T09:46:15;59.90;;;14.53;;
7881;SDS011;3986;41.884;23.466;2023-12-22T09:48:45;63.80;;;16.80;;
7881;SDS011;3986;41.884;23.466;2023-12-22T09:51:16;50.17;;;15.33;;
7881;SDS011;3986;41.884;23.466;2023-12-22T09:53:46;64.27;;;19.30;;
7881;SDS011;3986;41.884;23.466;2023-12-22T09:56:16;78.00;;;27.70;;
7881;SDS011;3986;41.884;23.466;2023-12-22T09:58:46;69.00;;;17.83;;
7881;SDS011;3986;41.884;23.466;2023-12-22T10:01:16;83.50;;;21.73;;
7881;SDS011;3986;41.884;23.466;2023-12-22T10:03:49;82.50;;;21.80;;
7881;SDS011;3986;41.884;23.466;2023-12-22T10:06:19;63.67;;;16.77;;
7881;SDS011;3986;41.884;23.466;2023-12-22T10:08:47;77.60;;;18.70;;
7881;SDS011;3986;41.884;23.466;2023-12-22T10:11:18;50.87;;;14.43;;
7881;SDS011;3986;41.884;23.466;2023-12-22T10:13:48;66.53;;;13.97;;
7881;SDS011;3986;41.884;23.466;2023-12-22T10:16:22;36.07;;;10.40;;
7881;SDS011;3986;41.884;23.466;2023-12-22T10:18:51;50.43;;;9.77;;
7881;SDS011;3986;41.884;23.466;2023-12-22T10:21:20;47.73;;;9.57;;
7881;SDS011;3986;41.884;23.466;2023-12-22T10:23:56;49.60;;;16.00;;
7881;SDS011;3986;41.884;23.466;2023-12-22T10:26:24;68.90;;;18.27;;
7881;SDS011;3986;41.884;23.466;2023-12-22T10:28:54;79.13;;;18.03;;
7881;SDS011;3986;41.884;23.466;2023-12-22T10:31:28;48.60;;;17.23;;
7881;SDS011;3986;41.884;23.466;2023-12-22T10:34:06;47.90;;;16.87;;
7881;SDS011;3986;41.884;23.466;2023-12-22T10:36:33;87.67;;;20.90;;
7881;SDS011;3986;41.884;23.466;2023-12-22T10:39:05;55.87;;;20.03;;
7881;SDS011;3986;41.884;23.466;2023-12-22T10:41:35;54.87;;;18.90;;
7881;SDS011;3986;41.884;23.466;2023-12-22T10:44:18;70.40;;;27.90;;
7881;SDS011;3986;41.884;23.466;2023-12-22T10:46:48;86.87;;;33.23;;
7881;SDS011;3986;41.884;23.466;2023-12-22T10:49:16;81.57;;;44.70;;
7881;SDS011;3986;41.884;23.466;2023-12-22T10:51:44;103.93;;;33.93;;
7881;SDS011;3986;41.884;23.466;2023-12-22T10:54:14;69.77;;;31.77;;
7881;SDS011;3986;41.884;23.466;2023-12-22T10:56:44;61.23;;;25.37;;
7881;SDS011;3986;41.884;23.466;2023-12-22T10:59:16;81.77;;;30.27;;
7881;SDS011;3986;41.884;23.466;2023-12-22T11:01:49;76.70;;;35.40;;
7881;SDS011;3986;41.884;23.466;2023-12-22T11:04:23;94.50;;;40.57;;
7881;SDS011;3986;41.884;23.466;2023-12-22T11:06:58;85.47;;;42.07;;
7881;SDS011;3986;41.884;23.466;2023-12-22T11:09:29;92.20;;;35.47;;
7881;SDS011;3986;41.884;23.466;2023-12-22T11:11:58;83.07;;;27.53;;
7881;SDS011;3986;41.884;23.466;2023-12-22T11:14:27;95.00;;;27.73;;
7881;SDS011;3986;41.884;23.466;2023-12-22T11:16:58;80.63;;;25.50;;
7881;SDS011;3986;41.884;23.466;2023-12-22T11:19:27;91.03;;;24.23;;
7881;SDS011;3986;41.884;23.466;2023-12-22T11:21:57;66.43;;;26.17;;
7881;SDS011;3986;41.884;23.466;2023-12-22T11:24:25;73.37;;;26.20;;
7881;SDS011;3986;41.884;23.466;2023-12-22T11:26:54;81.20;;;29.23;;
7881;SDS011;3986;41.884;23.466;2023-12-22T11:29:26;99.77;;;30.50;;
7881;SDS011;3986;41.884;23.466;2023-12-22T11:31:54;68.70;;;25.97;;
7881;SDS011;3986;41.884;23.466;2023-12-22T11:34:23;75.00;;;26.17;;
7881;SDS011;3986;41.884;23.466;2023-12-22T11:36:52;89.43;;;29.90;;
7881;SDS011;3986;41.884;23.466;2023-12-22T11:39:20;136.23;;;29.60;;
7881;SDS011;3986;41.884;23.466;2023-12-22T11:41:47;84.10;;;20.60;;
7881;SDS011;3986;41.884;23.466;2023-12-22T11:44:17;81.30;;;35.87;;
7881;SDS011;3986;41.884;23.466;2023-12-22T11:46:43;85.70;;;34.83;;
7881;SDS011;3986;41.884;23.466;2023-12-22T11:49:12;87.83;;;30.93;;
7881;SDS011;3986;41.884;23.466;2023-12-22T11:51:40;108.23;;;38.53;;
7881;SDS011;3986;41.884;23.466;2023-12-22T11:57:12;109.13;;;58.83;;
7881;SDS011;3986;41.884;23.466;2023-12-22T11:59:56;102.30;;;57.60;;
7881;SDS011;3986;41.884;23.466;2023-12-22T12:02:24;153.07;;;54.80;;
7881;SDS011;3986;41.884;23.466;2023-12-22T12:04:50;159.53;;;62.97;;
7881;SDS011;3986;41.884;23.466;2023-12-22T12:07:37;156.10;;;66.20;;
7881;SDS011;3986;41.884;23.466;2023-12-22T12:10:10;118.53;;;53.13;;
7881;SDS011;3986;41.884;23.466;2023-12-22T12:12:38;149.67;;;64.67;;
7881;SDS011;3986;41.884;23.466;2023-12-22T12:15:08;110.07;;;60.07;;
7881;SDS011;3986;41.884;23.466;2023-12-22T12:17:40;99.90;;;51.97;;
7881;SDS011;3986;41.884;23.466;2023-12-22T12:20:08;109.13;;;53.80;;
7881;SDS011;3986;41.884;23.466;2023-12-22T12:22:38;76.33;;;35.33;;
7881;SDS011;3986;41.884;23.466;2023-12-22T12:25:09;63.43;;;26.23;;
7881;SDS011;3986;41.884;23.466;2023-12-22T12:27:37;57.50;;;22.93;;
7881;SDS011;3986;41.884;23.466;2023-12-22T12:30:11;50.23;;;19.23;;
7881;SDS011;3986;41.884;23.466;2023-12-22T12:32:41;78.73;;;21.00;;
7881;SDS011;3986;41.884;23.466;2023-12-22T12:35:10;70.47;;;19.23;;
7881;SDS011;3986;41.884;23.466;2023-12-22T12:37:38;50.77;;;14.30;;
7881;SDS011;3986;41.884;23.466;2023-12-22T12:40:06;57.70;;;13.80;;
7881;SDS011;3986;41.884;23.466;2023-12-22T12:42:35;44.97;;;14.23;;
7881;SDS011;3986;41.884;23.466;2023-12-22T12:45:03;69.53;;;18.60;;
7881;SDS011;3986;41.884;23.466;2023-12-22T12:47:31;75.87;;;31.97;;
7881;SDS011;3986;41.884;23.466;2023-12-22T12:49:58;75.03;;;23.57;;
7881;SDS011;3986;41.884;23.466;2023-12-22T12:52:25;63.87;;;20.23;;
7881;SDS011;3986;41.884;23.466;2023-12-22T12:54:53;63.07;;;14.80;;
7881;SDS011;3986;41.884;23.466;2023-12-22T12:57:21;53.27;;;15.80;;
7881;SDS011;3986;41.884;23.466;2023-12-22T12:59:48;72.77;;;18.57;;
7881;SDS011;3986;41.884;23.466;2023-12-22T13:02:16;63.53;;;17.10;;
7881;SDS011;3986;41.884;23.466;2023-12-22T13:04:43;60.40;;;20.10;;
7881;SDS011;3986;41.884;23.466;2023-12-22T13:07:10;58.53;;;13.60;;
7881;SDS011;3986;41.884;23.466;2023-12-22T13:09:38;54.87;;;13.03;;
7881;SDS011;3986;41.884;23.466;2023-12-22T13:12:08;43.20;;;16.23;;
7881;SDS011;3986;41.884;23.466;2023-12-22T13:14:35;59.87;;;19.30;;
7881;SDS011;3986;41.884;23.466;2023-12-22T13:17:02;76.33;;;20.83;;
7881;SDS011;3986;41.884;23.466;2023-12-22T13:19:31;94.23;;;25.27;;
7881;SDS011;3986;41.884;23.466;2023-12-22T13:21:58;81.27;;;22.60;;
7881;SDS011;3986;41.884;23.466;2023-12-22T13:24:26;90.57;;;28.50;;
7881;SDS011;3986;41.884;23.466;2023-12-22T13:26:59;103.20;;;36.00;;
7881;SDS011;3986;41.884;23.466;2023-12-22T13:29:28;89.27;;;27.67;;
7881;SDS011;3986;41.884;23.466;2023-12-22T13:31:55;77.83;;;26.43;;
7881;SDS011;3986;41.884;23.466;2023-12-22T13:34:23;108.30;;;45.10;;
7881;SDS011;3986;41.884;23.466;2023-12-22T13:36:50;80.00;;;30.63;;
7881;SDS011;3986;41.884;23.466;2023-12-22T13:39:18;105.90;;;39.87;;
7881;SDS011;3986;41.884;23.466;2023-12-22T13:41:44;125.97;;;46.33;;
7881;SDS011;3986;41.884;23.466;2023-12-22T13:44:12;90.73;;;35.87;;
7881;SDS011;3986;41.884;23.466;2023-12-22T13:46:40;80.13;;;25.13;;
7881;SDS011;3986;41.884;23.466;2023-12-22T13:49:08;58.37;;;20.13;;
7881;SDS011;3986;41.884;23.466;2023-12-22T13:51:39;61.53;;;19.70;;
7881;SDS011;3986;41.884;23.466;2023-12-22T13:54:07;45.93;;;20.07;;
7881;SDS011;3986;41.884;23.466;2023-12-22T13:56:34;60.67;;;22.87;;
7881;SDS011;3986;41.884;23.466;2023-12-22T13:59:01;53.53;;;21.03;;
7881;SDS011;3986;41.884;23.466;2023-12-22T14:01:29;65.37;;;22.43;;
7881;SDS011;3986;41.884;23.466;2023-12-22T14:03:57;75.13;;;25.50;;
7881;SDS011;3986;41.884;23.466;2023-12-22T14:06:24;79.10;;;27.20;;
7881;SDS011;3986;41.884;23.466;2023-12-22T14:08:52;59.63;;;22.33;;
7881;SDS011;3986;41.884;23.466;2023-12-22T14:11:19;94.30;;;23.20;;
7881;SDS011;3986;41.884;23.466;2023-12-22T14:13:45;69.07;;;27.70;;
7881;SDS011;3986;41.884;23.466;2023-12-22T14:16:12;90.97;;;33.90;;
7881;SDS011;3986;41.884;23.466;2023-12-22T14:18:40;80.17;;;26.27;;
7881;SDS011;3986;41.884;23.466;2023-12-22T14:21:08;47.43;;;20.23;;
7881;SDS011;3986;41.884;23.466;2023-12-22T14:23:35;56.23;;;21.33;;
7881;SDS011;3986;41.884;23.466;2023-12-22T14:26:02;97.60;;;22.77;;
7881;SDS011;3986;41.884;23.466;2023-12-22T14:28:31;44.67;;;15.10;;
7881;SDS011;3986;41.884;23.466;2023-12-22T14:30:58;60.53;;;17.60;;
7881;SDS011;3986;41.884;23.466;2023-12-22T14:33:24;60.33;;;17.47;;